Time;durP1;ratioP1;P1;durP2;ratioP2;P2;SDS_P1;SDS_P2;PMS_P1;PMS_P2;Temp;Humidity;BMP_temperature;BMP_pressure;BME280_temperature;BME280_humidity;BME280_pressure;Samples;Min_cycle;Max_cycle;Signal;HPM_P1;HPM_P2
2022/04/09 00:00:15;;;;;;;17.65;3.47;;;;;;;2.02;100.00;100273.63;5344982;27;20038;-63
2022/04/09 00:02:47;;;;;;;19.08;3.70;;;;;;;1.98;100.00;100277.34;5346744;27;20033;-63
2022/04/09 00:05:18;;;;;;;17.40;3.80;;;;;;;2.00;100.00;100275.50;5344933;27;20134;-63
2022/04/09 00:07:50;;;;;;;15.50;3.47;;;;;;;1.98;100.00;100280.84;5345683;27;20065;-63
2022/04/09 00:10:21;;;;;;;18.13;3.33;;;;;;;1.99;100.00;100282.53;5347261;27;20140;-63
2022/04/09 00:12:52;;;;;;;16.40;3.90;;;;;;;1.98;100.00;100291.34;5349877;27;20034;-63
2022/04/09 00:15:24;;;;;;;13.20;3.35;;;;;;;1.94;100.00;100297.69;5347683;27;21401;-63
2022/04/09 00:17:55;;;;;;;15.55;3.58;;;;;;;1.96;100.00;100296.69;5343248;27;20030;-63
2022/04/09 00:20:26;;;;;;;12.68;3.97;;;;;;;1.93;100.00;100303.88;5345629;27;20062;-63
2022/04/09 00:22:58;;;;;;;14.68;3.13;;;;;;;1.92;100.00;100304.81;5347416;27;20403;-63
2022/04/09 00:25:29;;;;;;;18.55;4.25;;;;;;;1.87;100.00;100312.91;5348212;27;20062;-63
2022/04/09 00:28:00;;;;;;;17.02;4.45;;;;;;;1.91;100.00;100324.16;5344065;27;20042;-63
2022/04/09 00:30:31;;;;;;;15.73;3.83;;;;;;;1.91;100.00;100324.16;5343236;27;21127;-63
2022/04/09 00:33:03;;;;;;;19.00;3.47;;;;;;;1.89;100.00;100318.09;5346556;27;20054;-63
2022/04/09 00:35:34;;;;;;;17.10;4.32;;;;;;;1.88;100.00;100324.28;5345940;27;20049;-63
2022/04/09 00:38:05;;;;;;;18.10;3.78;;;;;;;1.86;100.00;100324.38;5345571;27;20107;-63
2022/04/09 00:40:37;;;;;;;18.55;3.70;;;;;;;1.82;100.00;100343.84;5343995;27;20532;-63
2022/04/09 00:43:08;;;;;;;16.20;3.60;;;;;;;1.81;100.00;100339.53;5344434;27;21286;-63
2022/04/09 00:45:40;;;;;;;18.48;4.20;;;;;;;1.80;100.00;100348.31;5344856;27;20744;-63
2022/04/09 00:48:11;;;;;;;19.45;4.03;;;;;;;1.82;100.00;100348.25;5328455;27;20468;-63
2022/04/09 00:50:42;;;;;;;18.83;4.18;;;;;;;1.82;100.00;100351.72;5344096;27;20133;-63
2022/04/09 00:53:15;;;;;;;19.05;3.95;;;;;;;1.80;100.00;100355.38;5347815;27;20160;-63
2022/04/09 00:58:40;;;;;;;20.33;3.70;;;;;;;1.79;100.00;100362.41;5341930;27;20129;-63
2022/04/09 01:01:13;;;;;;;19.98;4.95;;;;;;;1.80;100.00;100368.53;5342733;27;20056;-63
2022/04/09 01:03:45;;;;;;;21.23;4.03;;;;;;;1.75;100.00;100368.75;5344603;27;20030;-63
2022/04/09 01:06:16;;;;;;;21.27;3.28;;;;;;;1.76;100.00;100370.44;5343777;27;20027;-63
2022/04/09 01:08:47;;;;;;;19.77;3.92;;;;;;;1.70;100.00;100387.38;5342583;27;20019;-63
2022/04/09 01:11:19;;;;;;;19.17;3.55;;;;;;;1.76;100.00;100391.50;5345973;27;20507;-63
2022/04/09 01:13:51;;;;;;;18.67;3.08;;;;;;;1.74;100.00;100388.09;5343018;27;20699;-63
2022/04/09 01:16:24;;;;;;;17.73;3.30;;;;;;;1.74;100.00;100395.97;5343875;27;20086;-63
2022/04/09 01:18:57;;;;;;;15.57;3.95;;;;;;;1.55;100.00;100396.84;5345564;27;20033;-63
2022/04/09 01:21:29;;;;;;;17.13;3.97;;;;;;;1.51;100.00;100412.81;5344474;27;20026;-63
2022/04/09 01:24:01;;;;;;;17.92;3.60;;;;;;;1.53;100.00;100416.22;5343706;27;20502;-63
2022/04/09 01:26:32;;;;;;;12.00;3.05;;;;;;;1.50;100.00;100411.13;5341602;27;20093;-63
2022/04/09 01:29:04;;;;;;;15.45;2.90;;;;;;;1.42;100.00;100419.38;5339877;27;20026;-63
2022/04/09 01:31:35;;;;;;;22.40;3.97;;;;;;;1.46;100.00;100428.81;5339828;27;20022;-63
2022/04/09 01:34:08;;;;;;;20.40;3.92;;;;;;;1.51;100.00;100432.06;5343229;27;21429;-63
2022/04/09 01:36:40;;;;;;;20.08;4.05;;;;;;;1.50;100.00;100434.78;5344063;27;20421;-63
2022/04/09 01:39:12;;;;;;;18.30;3.47;;;;;;;1.46;100.00;100438.44;5345539;27;20027;-63
2022/04/09 01:41:45;;;;;;;17.98;3.20;;;;;;;1.42;100.00;100443.03;5346370;27;20294;-63
2022/04/09 01:44:16;;;;;;;15.30;3.35;;;;;;;1.40;100.00;100444.00;5351302;27;20034;-63
2022/04/09 01:46:47;;;;;;;14.52;3.53;;;;;;;1.34;100.00;100446.00;5347668;27;20499;-63
2022/04/09 01:49:19;;;;;;;17.85;3.85;;;;;;;1.37;100.00;100452.88;5346288;27;20576;-63
2022/04/09 01:51:50;;;;;;;14.90;2.95;;;;;;;1.38;100.00;100457.19;5341440;27;20030;-63
2022/04/09 01:54:21;;;;;;;17.63;3.50;;;;;;;1.36;100.00;100469.56;5344277;27;20042;-63
2022/04/09 01:56:52;;;;;;;18.13;3.03;;;;;;;1.33;100.00;100473.19;5347276;27;20022;-63
2022/04/09 01:59:24;;;;;;;14.60;3.35;;;;;;;1.36;100.00;100466.94;5341934;27;20122;-63
2022/04/09 02:01:55;;;;;;;19.02;3.80;;;;;;;1.42;100.00;100474.56;5345799;27;20030;-63
2022/04/09 02:04:26;;;;;;;15.55;3.10;;;;;;;1.37;100.00;100472.13;5347800;27;20034;-63
2022/04/09 02:06:58;;;;;;;18.30;3.78;;;;;;;1.39;100.00;100479.09;5346336;27;20450;-63
2022/04/09 02:09:29;;;;;;;19.85;3.03;;;;;;;1.42;100.00;100485.06;5347336;27;20038;-63
2022/04/09 02:12:01;;;;;;;14.95;3.08;;;;;;;1.41;100.00;100485.97;5349325;27;20071;-63
2022/04/09 02:14:32;;;;;;;21.90;4.47;;;;;;;1.47;100.00;100487.50;5330632;27;20561;-63
2022/04/09 02:17:03;;;;;;;15.43;3.00;;;;;;;1.51;100.00;100492.53;5342140;27;20039;-63
2022/04/09 02:19:35;;;;;;;14.55;3.22;;;;;;;1.50;100.00;100497.88;5345272;27;20036;-63
2022/04/09 02:22:06;;;;;;;18.38;3.05;;;;;;;1.51;100.00;100496.94;5345483;27;20050;-63
2022/04/09 02:24:39;;;;;;;19.02;3.45;;;;;;;1.50;100.00;100508.41;5348728;27;20046;-63
2022/04/09 02:27:11;;;;;;;15.63;3.10;;;;;;;1.48;100.00;100512.88;5342534;27;20018;-63
2022/04/09 02:29:42;;;;;;;17.63;2.83;;;;;;;1.47;100.00;100521.66;5344361;27;20065;-63
2022/04/09 02:32:13;;;;;;;16.23;2.90;;;;;;;1.46;100.00;100519.94;5347096;27;20031;-63
2022/04/09 02:34:44;;;;;;;20.27;3.35;;;;;;;1.45;100.00;100521.72;5344032;27;20749;-63
2022/04/09 02:37:16;;;;;;;15.38;3.10;;;;;;;1.46;100.00;100525.19;5346095;27;20030;-63
2022/04/09 02:39:47;;;;;;;20.60;3.78;;;;;;;1.43;100.00;100525.34;5344969;27;20540;-63
2022/04/09 02:42:19;;;;;;;15.80;3.63;;;;;;;1.42;100.00;100528.88;5347727;27;20027;-63
2022/04/09 02:44:50;;;;;;;19.00;3.00;;;;;;;1.45;100.00;100542.75;5349395;27;20526;-63
2022/04/09 02:47:21;;;;;;;17.88;3.42;;;;;;;1.55;100.00;100535.31;5355090;27;20099;-63
2022/04/09 02:49:52;;;;;;;14.65;3.13;;;;;;;1.69;100.00;100538.22;5350088;27;20038;-63
2022/04/09 02:52:27;;;;;;;14.02;2.47;;;;;;;1.86;100.00;100545.34;5348324;27;20034;-63
2022/04/09 02:54:58;;;;;;;16.70;2.60;;;;;;;1.87;100.00;100541.78;5328564;27;20078;-63
2022/04/09 02:57:29;;;;;;;13.60;2.83;;;;;;;1.91;100.00;100555.66;5351784;27;20038;-63
2022/04/09 03:00:01;;;;;;;19.55;3.47;;;;;;;1.93;100.00;100564.31;5353326;27;20034;-63
2022/04/09 03:02:36;;;;;;;14.98;2.67;;;;;;;1.86;100.00;100565.50;5349731;27;20041;-63
2022/04/09 03:05:10;;;;;;;10.98;2.65;;;;;;;1.82;100.00;100566.56;5348585;27;20087;-63
2022/04/09 03:07:41;;;;;;;13.95;2.70;;;;;;;1.81;100.00;100571.00;5348533;27;20019;-63
2022/04/09 03:10:12;;;;;;;11.55;2.50;;;;;;;1.80;100.00;100577.16;5347405;27;20050;-63
2022/04/09 03:12:45;;;;;;;9.13;2.20;;;;;;;1.69;100.00;100582.06;5350037;27;20079;-63
2022/04/09 03:15:16;;;;;;;11.02;2.25;;;;;;;1.63;100.00;100579.69;5349046;27;20409;-63
2022/04/09 03:17:47;;;;;;;17.10;2.58;;;;;;;1.58;100.00;100577.28;5349591;27;20026;-63
2022/04/09 03:20:20;;;;;;;15.60;2.38;;;;;;;1.56;100.00;100581.75;5347054;27;20388;-63
2022/04/09 03:22:51;;;;;;;11.80;2.20;;;;;;;1.51;100.00;100581.91;5345150;27;20037;-63
2022/04/09 03:25:22;;;;;;;11.57;2.50;;;;;;;1.50;100.00;100592.53;5347679;27;20031;-63
2022/04/09 03:27:54;;;;;;;9.07;2.22;;;;;;;1.46;100.00;100591.81;5345932;27;20113;-63
2022/04/09 03:30:25;;;;;;;12.70;2.35;;;;;;;1.40;100.00;100596.44;5345584;27;20111;-63
2022/04/09 03:32:56;;;;;;;12.40;2.47;;;;;;;1.34;100.00;100601.06;5343848;27;20039;-63
2022/04/09 03:35:28;;;;;;;16.13;2.70;;;;;;;1.33;100.00;100612.50;5347671;27;20531;-63
2022/04/09 03:37:59;;;;;;;12.70;2.70;;;;;;;1.27;100.00;100614.53;5348211;27;20098;-63
2022/04/09 03:40:30;;;;;;;13.57;2.97;;;;;;;1.23;100.00;100616.44;5350913;27;20680;-63
2022/04/09 03:43:01;;;;;;;13.63;2.80;;;;;;;1.20;100.00;100619.16;5346880;27;20042;-63
2022/04/09 03:45:33;;;;;;;17.77;3.05;;;;;;;1.25;100.00;100616.38;5345340;27;20396;-63
2022/04/09 03:48:06;;;;;;;15.18;2.55;;;;;;;1.16;100.00;100618.44;5345608;27;20058;-63
2022/04/09 03:50:37;;;;;;;10.45;2.38;;;;;;;1.18;100.00;100618.38;5348058;27;20077;-63
2022/04/09 03:53:08;;;;;;;12.70;2.70;;;;;;;1.13;100.00;100626.47;5346847;27;20122;-63
2022/04/09 03:55:40;;;;;;;16.08;2.88;;;;;;;1.10;100.00;100629.22;5346581;27;20031;-63
2022/04/09 03:58:11;;;;;;;13.07;3.08;;;;;;;1.08;100.00;100628.41;5349293;27;20090;-63
2022/04/09 04:00:43;;;;;;;12.55;2.78;;;;;;;1.12;100.00;100626.53;5340638;27;20110;-63
2022/04/09 04:03:14;;;;;;;17.95;3.15;;;;;;;1.03;100.00;100638.25;5346982;27;20510;-63
2022/04/09 04:05:47;;;;;;;20.30;3.80;;;;;;;1.05;100.00;100653.94;5346428;27;20023;-63
2022/04/09 04:08:18;;;;;;;14.10;2.70;;;;;;;1.01;100.00;100649.75;5350093;27;20062;-63
2022/04/09 04:10:49;;;;;;;13.93;3.00;;;;;;;0.97;100.00;100654.25;5346785;27;20106;-63
2022/04/09 04:13:21;;;;;;;12.48;2.63;;;;;;;0.97;100.00;100647.22;5345784;27;20047;-63
2022/04/09 04:15:54;;;;;;;16.10;2.90;;;;;;;0.98;100.00;100655.97;5345431;27;20555;-63
2022/04/09 04:18:25;;;;;;;18.45;3.20;;;;;;;0.97;100.00;100667.41;5348981;27;20034;-63
2022/04/09 04:20:56;;;;;;;14.07;2.95;;;;;;;0.98;100.00;100669.97;5328106;27;20479;-63
2022/04/09 04:23:27;;;;;;;11.45;2.70;;;;;;;0.95;100.00;100677.94;5343780;27;20521;-63
2022/04/09 04:25:59;;;;;;;20.08;3.30;;;;;;;0.97;100.00;100683.16;5343245;27;20039;-63
2022/04/09 04:28:30;;;;;;;18.88;2.72;;;;;;;0.98;100.00;100684.88;5350348;27;20030;-63
2022/04/09 04:31:01;;;;;;;15.43;3.00;;;;;;;0.94;100.00;100676.25;5347040;27;20022;-63
2022/04/09 04:33:33;;;;;;;9.98;2.22;;;;;;;0.89;100.00;100686.06;5342555;27;20027;-63
2022/04/09 04:36:05;;;;;;;13.85;2.53;;;;;;;0.86;100.00;100686.19;5341508;27;20031;-63
2022/04/09 04:38:36;;;;;;;17.27;2.78;;;;;;;0.86;100.00;100688.81;5342065;27;20058;-63
2022/04/09 04:41:07;;;;;;;12.63;2.97;;;;;;;0.84;100.00;100698.53;5341403;27;20030;-63
2022/04/09 04:43:39;;;;;;;13.27;2.80;;;;;;;0.84;100.00;100692.44;5346524;27;20869;-63
2022/04/09 04:46:10;;;;;;;17.75;3.53;;;;;;;0.85;100.00;100695.00;5340918;27;20038;-63
2022/04/09 04:48:41;;;;;;;16.70;3.63;;;;;;;0.85;100.00;100707.28;5346411;27;20026;-63
2022/04/09 04:51:13;;;;;;;16.58;3.15;;;;;;;0.85;100.00;100710.75;5341164;27;20030;-63
2022/04/09 04:53:44;;;;;;;17.58;3.17;;;;;;;0.82;100.00;100712.63;5342215;27;20027;-63
2022/04/09 04:56:15;;;;;;;17.48;3.40;;;;;;;0.86;100.00;100725.59;5344262;27;20034;-63
2022/04/09 04:58:47;;;;;;;15.45;3.30;;;;;;;0.86;100.00;100712.44;5348967;27;20109;-63
2022/04/09 05:01:18;;;;;;;17.33;2.97;;;;;;;0.88;100.00;100710.66;5345323;27;20035;-63
2022/04/09 05:03:50;;;;;;;17.70;2.63;;;;;;;0.95;100.00;100727.00;5348325;27;20035;-63
2022/04/09 05:06:21;;;;;;;14.70;3.20;;;;;;;0.92;100.00;100730.63;5352228;27;20384;-63
2022/04/09 05:08:52;;;;;;;12.80;3.03;;;;;;;0.95;100.00;100738.38;5347256;27;20472;-63
2022/04/09 05:11:24;;;;;;;13.95;3.17;;;;;;;0.98;100.00;100737.41;5346440;27;20042;-63
2022/04/09 05:13:55;;;;;;;13.68;3.42;;;;;;;1.02;100.00;100739.00;5349506;27;20134;-63
2022/04/09 05:16:26;;;;;;;18.67;3.50;;;;;;;1.04;100.00;100749.47;5350314;27;20054;-63
2022/04/09 05:18:57;;;;;;;15.35;2.55;;;;;;;1.04;100.00;100760.81;5351074;27;20097;-63
2022/04/09 05:21:29;;;;;;;15.13;3.20;;;;;;;1.09;100.00;100756.22;5349067;27;20491;-63
2022/04/09 05:24:00;;;;;;;16.08;2.83;;;;;;;1.09;100.00;100766.72;5343388;27;20179;-63
2022/04/09 05:26:31;;;;;;;16.13;3.10;;;;;;;1.09;100.00;100768.50;5347897;27;20038;-63
2022/04/09 05:29:03;;;;;;;18.00;2.95;;;;;;;1.11;100.00;100769.31;5351206;27;20631;-63
2022/04/09 05:31:34;;;;;;;17.77;3.80;;;;;;;1.14;100.00;100775.31;5345816;27;20034;-63
2022/04/09 05:34:06;;;;;;;14.00;3.30;;;;;;;1.21;100.00;100780.31;5353326;27;20027;-63
2022/04/09 05:36:37;;;;;;;19.77;5.05;;;;;;;1.26;100.00;100788.88;5350385;27;20387;-63
2022/04/09 05:39:11;;;;;;;20.75;3.88;;;;;;;1.28;100.00;100794.94;5352393;27;20034;-63
2022/04/09 05:41:42;;;;;;;19.63;3.50;;;;;;;1.29;100.00;100794.03;5349484;27;20034;-63
2022/04/09 05:44:13;;;;;;;19.60;4.00;;;;;;;1.39;100.00;100799.78;5346854;27;20034;-63
2022/04/09 05:46:45;;;;;;;11.55;3.03;;;;;;;1.39;100.00;100805.06;5344724;27;20033;-63
2022/04/09 05:49:16;;;;;;;15.20;3.97;;;;;;;1.51;100.00;100810.66;5348717;27;20113;-63
2022/04/09 05:51:48;;;;;;;16.30;3.45;;;;;;;1.63;100.00;100804.09;5345121;27;20026;-63
2022/04/09 05:54:19;;;;;;;16.38;3.45;;;;;;;1.71;100.00;100815.16;5345375;27;20045;-63
2022/04/09 05:56:51;;;;;;;21.20;3.72;;;;;;;1.87;100.00;100822.41;5343972;27;20357;-63
2022/04/09 05:59:24;;;;;;;11.43;2.90;;;;;;;1.91;100.00;100821.38;5346441;27;20027;-63
2022/04/09 06:01:55;;;;;;;17.83;3.92;;;;;;;1.98;100.00;100829.88;5341773;27;20300;-63
2022/04/09 06:04:26;;;;;;;12.70;3.33;;;;;;;2.02;100.00;100827.06;5345974;27;20027;-63
2022/04/09 06:07:00;;;;;;;14.90;3.40;;;;;;;2.06;100.00;100836.53;5342461;27;20476;-63
2022/04/09 06:09:31;;;;;;;17.30;3.73;;;;;;;2.09;100.00;100836.41;5342970;27;20023;-63
2022/04/09 06:12:06;;;;;;;17.40;3.65;;;;;;;2.13;100.00;100848.53;5345269;27;20034;-63
2022/04/09 06:14:37;;;;;;;18.75;3.55;;;;;;;2.20;100.00;100848.25;5342932;27;20039;-63
2022/04/09 06:17:08;;;;;;;14.40;3.38;;;;;;;2.29;100.00;100846.09;5345972;27;20031;-63
2022/04/09 06:19:40;;;;;;;17.30;3.45;;;;;;;2.31;100.00;100856.56;5340282;27;20167;-63
2022/04/09 06:22:11;;;;;;;14.35;3.50;;;;;;;2.35;100.00;100860.78;5345690;27;20034;-63
2022/04/09 06:24:42;;;;;;;16.15;3.58;;;;;;;2.38;100.00;100865.94;5345451;27;20435;-63
2022/04/09 06:27:14;;;;;;;16.13;3.50;;;;;;;2.48;100.00;100861.97;5344928;27;20027;-63
2022/04/09 06:29:45;;;;;;;14.35;3.15;;;;;;;2.55;100.00;100866.06;5340901;27;20027;-63
2022/04/09 06:32:16;;;;;;;13.77;3.17;;;;;;;2.61;100.00;100871.97;5343908;27;20111;-63
2022/04/09 06:34:47;;;;;;;10.70;2.90;;;;;;;2.83;100.00;100874.53;5348002;27;20358;-63
2022/04/09 06:37:19;;;;;;;14.18;2.83;;;;;;;3.04;100.00;100878.84;5342872;27;20030;-63
2022/04/09 06:39:50;;;;;;;14.50;3.33;;;;;;;3.14;100.00;100879.28;5344648;27;20064;-63
2022/04/09 06:42:21;;;;;;;16.48;3.40;;;;;;;3.27;100.00;100879.59;5343675;27;20181;-63
2022/04/09 06:44:52;;;;;;;17.38;3.17;;;;;;;3.49;100.00;100890.00;5346925;27;20468;-63
2022/04/09 06:47:24;;;;;;;16.30;3.28;;;;;;;3.68;100.00;100893.53;5345636;27;20037;-63
2022/04/09 06:49:56;;;;;;;15.85;2.95;;;;;;;3.96;100.00;100892.19;5348825;27;20026;-63
2022/04/09 06:52:28;;;;;;;12.05;3.28;;;;;;;4.20;100.00;100898.09;5351899;27;20023;-63
2022/04/09 06:54:59;;;;;;;15.55;2.60;;;;;;;4.41;100.00;100890.88;5345785;27;20083;-63
2022/04/09 06:57:32;;;;;;;11.73;3.08;;;;;;;4.58;100.00;100894.44;5347080;27;20054;-63
2022/04/09 07:00:06;;;;;;;12.18;2.70;;;;;;;4.65;100.00;100898.50;5348920;27;20502;-63
2022/04/09 07:02:38;;;;;;;13.75;2.42;;;;;;;4.76;97.55;100908.53;5347069;27;20038;-63
2022/04/09 07:05:10;;;;;;;16.10;3.72;;;;;;;4.80;98.15;100904.78;5346012;27;20427;-63
2022/04/09 07:07:46;;;;;;;16.52;3.42;;;;;;;4.81;95.69;100912.63;5342581;27;20764;-63
2022/04/09 07:10:17;;;;;;;13.00;2.53;;;;;;;4.85;96.05;100918.59;5347244;27;20031;-63
2022/04/09 07:12:48;;;;;;;12.40;2.58;;;;;;;4.86;94.82;100915.03;5330979;27;20030;-63
2022/04/09 07:15:20;;;;;;;13.18;2.83;;;;;;;4.87;95.32;100922.91;5348627;27;20120;-63
2022/04/09 07:17:51;;;;;;;13.02;2.95;;;;;;;4.85;94.22;100932.69;5348116;27;20087;-63
2022/04/09 07:20:22;;;;;;;13.73;3.08;;;;;;;4.82;94.70;100934.66;5352605;27;20082;-63
2022/04/09 07:22:54;;;;;;;14.73;3.53;;;;;;;4.78;92.63;100933.09;5354132;27;20082;-63
2022/04/09 07:25:25;;;;;;;14.27;2.92;;;;;;;4.74;93.41;100942.09;5351499;27;20400;-63
2022/04/09 07:27:56;;;;;;;14.38;2.60;;;;;;;4.74;94.12;100944.72;5351032;27;20031;-63
2022/04/09 07:30:28;;;;;;;13.80;2.58;;;;;;;4.68;95.56;100952.06;5352305;27;20026;-63
2022/04/09 07:32:59;;;;;;;14.43;3.40;;;;;;;4.70;93.96;100950.19;5351192;27;20023;-63
2022/04/09 07:35:31;;;;;;;16.60;3.10;;;;;;;4.72;95.15;100952.75;5347867;27;20048;-63
2022/04/09 07:38:07;;;;;;;12.18;2.33;;;;;;;4.79;94.98;100948.84;5351568;27;20030;-63
2022/04/09 07:40:38;;;;;;;11.63;2.80;;;;;;;4.87;94.66;100959.91;5355066;27;20022;-64
2022/04/09 07:43:10;;;;;;;11.55;2.58;;;;;;;4.94;94.80;100964.88;5351394;27;20027;-63
2022/04/09 07:45:41;;;;;;;13.07;2.53;;;;;;;5.04;93.28;100960.81;5355621;27;20042;-63
2022/04/09 07:48:13;;;;;;;12.40;2.75;;;;;;;5.14;93.84;100955.91;5353026;27;20079;-63
2022/04/09 07:50:44;;;;;;;11.82;2.97;;;;;;;5.26;92.94;100958.78;5357069;27;20105;-63
2022/04/09 07:53:15;;;;;;;16.67;3.33;;;;;;;5.35;91.50;100964.50;5347843;27;20098;-64
2022/04/09 07:55:46;;;;;;;17.02;3.88;;;;;;;5.41;91.48;100962.41;5352429;27;20034;-63
2022/04/09 07:58:18;;;;;;;16.63;2.72;;;;;;;5.53;92.28;100966.19;5347196;27;20061;-63
2022/04/09 08:00:50;;;;;;;13.00;3.45;;;;;;;5.58;92.23;100966.81;5353727;27;20072;-63
2022/04/09 08:03:21;;;;;;;13.75;3.00;;;;;;;5.67;92.13;100957.50;5345177;27;20833;-63
2022/04/09 08:05:52;;;;;;;14.80;3.55;;;;;;;5.87;90.87;100967.88;5351921;27;20533;-63
2022/04/09 08:08:24;;;;;;;14.13;2.88;;;;;;;5.96;88.79;100965.66;5355150;27;20030;-63
2022/04/09 08:10:55;;;;;;;10.90;2.97;;;;;;;6.10;86.83;100968.44;5351262;27;20037;-64
2022/04/09 08:13:26;;;;;;;10.27;3.05;;;;;;;6.27;86.23;100970.09;5358509;27;20043;-64
2022/04/09 08:15:57;;;;;;;11.38;2.65;;;;;;;6.47;84.93;100971.63;5350321;27;20061;-63
2022/04/09 08:18:29;;;;;;;8.85;2.53;;;;;;;6.71;84.40;100973.81;5356578;27;20030;-64
2022/04/09 08:21:00;;;;;;;8.77;2.13;;;;;;;7.00;78.89;100980.91;5352487;27;20069;-63
2022/04/09 08:23:32;;;;;;;9.55;2.70;;;;;;;7.14;78.84;100976.59;5349704;27;20095;-63
2022/04/09 08:26:03;;;;;;;9.55;2.63;;;;;;;7.28;76.92;100976.59;5351395;27;20027;-63
2022/04/09 08:28:36;;;;;;;14.98;3.55;;;;;;;7.49;77.97;100977.09;5352677;27;20038;-64
2022/04/09 08:31:08;;;;;;;10.50;2.38;;;;;;;7.58;74.51;100976.53;5343916;27;20055;-63
2022/04/09 08:33:42;;;;;;;10.25;2.50;;;;;;;7.72;72.15;100980.13;5357629;27;20519;-63
2022/04/09 08:36:13;;;;;;;8.45;1.73;;;;;;;7.78;70.39;100987.69;5358456;27;20042;-64
2022/04/09 08:38:45;;;;;;;11.48;2.03;;;;;;;7.83;68.83;100998.91;5350946;27;20050;-64
2022/04/09 08:41:18;;;;;;;8.65;1.88;;;;;;;7.79;64.24;100995.56;5357645;27;20035;-64
2022/04/09 08:43:50;;;;;;;8.60;1.80;;;;;;;7.88;65.79;101003.91;5354283;27;20537;-63
2022/04/09 08:46:25;;;;;;;10.57;2.20;;;;;;;7.99;68.54;100996.13;5357266;27;20164;-64
2022/04/09 08:48:58;;;;;;;9.05;2.30;;;;;;;8.12;71.34;100996.22;5358176;27;20091;-63
2022/04/09 08:51:30;;;;;;;7.18;1.73;;;;;;;8.35;69.75;101003.53;5358710;27;20029;-63
2022/04/09 08:54:02;;;;;;;15.50;2.72;;;;;;;8.44;67.86;101013.63;5356734;27;20563;-64
2022/04/09 08:56:34;;;;;;;8.75;2.05;;;;;;;8.67;65.32;101019.25;5351258;27;20046;-64
2022/04/09 08:59:05;;;;;;;5.40;1.60;;;;;;;8.81;64.77;101015.69;5347787;27;20033;-63
2022/04/09 09:01:37;;;;;;;7.45;1.60;;;;;;;8.51;60.49;101018.53;5349816;27;21363;-64
2022/04/09 09:04:08;;;;;;;6.85;1.83;;;;;;;8.32;62.42;101027.69;5352988;27;20030;-63
2022/04/09 09:06:40;;;;;;;8.60;1.67;;;;;;;8.11;62.50;101039.66;5357019;27;20384;-63
2022/04/09 09:09:31;;;;;;;7.03;1.58;;;;;;;7.97;61.87;101036.06;5360867;27;20460;-63
2022/04/09 09:12:06;;;;;;;7.40;1.65;;;;;;;8.09;62.90;101049.53;5350670;27;20042;-63
2022/04/09 09:14:44;;;;;;;6.97;1.70;;;;;;;8.08;61.99;101046.03;5353675;27;20049;-63
2022/04/09 09:17:26;;;;;;;6.53;1.50;;;;;;;8.30;59.83;101042.84;5351628;27;20023;-64
2022/04/09 09:19:58;;;;;;;8.55;1.25;;;;;;;8.50;60.29;101038.13;5360651;27;20035;-64
2022/04/09 09:22:37;;;;;;;5.20;1.13;;;;;;;8.74;58.94;101057.78;5356023;27;20113;-63
2022/04/09 09:25:11;;;;;;;7.47;1.50;;;;;;;8.81;58.26;101056.44;5351598;27;20133;-63
2022/04/09 09:27:42;;;;;;;6.45;1.50;;;;;;;8.71;56.81;101060.66;5352913;27;20106;-64
2022/04/09 09:30:14;;;;;;;4.15;0.93;;;;;;;8.65;59.24;101071.69;5355297;27;20098;-64
2022/04/09 09:33:05;;;;;;;2.58;0.60;;;;;;;8.37;61.55;101049.50;5354885;27;20067;-63
2022/04/09 09:36:01;;;;;;;4.07;1.08;;;;;;;8.39;63.52;101066.19;5351260;27;20038;-63
2022/04/09 09:38:33;;;;;;;4.45;0.98;;;;;;;8.14;61.51;101068.72;5353097;27;20066;-63
2022/04/09 09:41:20;;;;;;;3.45;0.82;;;;;;;8.09;62.85;101068.16;5346550;27;20055;-63
2022/04/09 09:44:05;;;;;;;4.15;1.20;;;;;;;7.92;62.39;101075.38;5355325;27;20032;-63
2022/04/09 09:46:37;;;;;;;8.05;1.33;;;;;;;7.78;63.34;101068.22;5352246;27;20040;-63
2022/04/09 09:49:09;;;;;;;3.10;0.93;;;;;;;7.68;62.34;101066.25;5353686;27;20027;-64
2022/04/09 09:51:42;;;;;;;7.93;1.55;;;;;;;7.81;66.11;101061.91;5356496;27;20026;-63
2022/04/09 09:54:13;;;;;;;7.07;1.50;;;;;;;7.95;62.47;101055.72;5348757;27;20372;-64
2022/04/09 09:56:45;;;;;;;7.35;1.20;;;;;;;7.99;60.51;101070.53;5348215;27;20022;-63
2022/04/09 09:59:17;;;;;;;5.72;1.13;;;;;;;8.03;56.71;101064.94;5359551;27;20027;-64
2022/04/09 10:01:48;;;;;;;4.40;1.10;;;;;;;8.04;56.95;101063.13;5350433;27;20102;-63
2022/04/09 10:04:20;;;;;;;7.95;1.50;;;;;;;8.03;57.63;101072.91;5351337;27;20429;-63
2022/04/09 10:06:51;;;;;;;6.70;1.25;;;;;;;8.34;60.14;101070.97;5354250;27;20022;-64
2022/04/09 10:09:23;;;;;;;6.25;1.08;;;;;;;8.52;53.94;101060.16;5343271;27;20034;-63
2022/04/09 10:11:55;;;;;;;4.35;0.98;;;;;;;8.74;54.46;101067.56;5352730;27;20050;-63
2022/04/09 10:14:30;;;;;;;3.03;0.80;;;;;;;8.76;51.95;101070.97;5354648;27;20042;-63
2022/04/09 10:17:06;;;;;;;6.50;1.30;;;;;;;8.70;51.71;101066.06;5356436;27;20115;-64
2022/04/09 10:19:41;;;;;;;4.20;0.90;;;;;;;8.69;51.65;101075.88;5352572;27;20027;-63
2022/04/09 10:22:14;;;;;;;5.28;1.00;;;;;;;8.76;51.89;101076.31;5354620;27;20113;-63
2022/04/09 10:24:46;;;;;;;5.63;1.42;;;;;;;8.91;51.26;101069.13;5355389;27;20027;-64
2022/04/09 10:27:37;;;;;;;4.63;1.15;;;;;;;8.95;50.80;101078.63;5353837;27;20026;-63
2022/04/09 10:30:12;;;;;;;6.65;1.73;;;;;;;8.80;50.68;101089.31;5333372;27;20027;-64
2022/04/09 10:32:53;;;;;;;3.10;1.08;;;;;;;8.76;51.16;101077.19;5348192;27;20034;-63
2022/04/09 10:35:41;;;;;;;4.93;0.95;;;;;;;8.66;50.70;101077.88;5351393;27;20030;-65
2022/04/09 10:38:13;;;;;;;5.18;0.88;;;;;;;8.60;49.03;101087.09;5348568;27;20031;-64
2022/04/09 10:40:50;;;;;;;6.15;0.80;;;;;;;8.63;49.55;101082.44;5355688;27;20062;-64
2022/04/09 10:43:21;;;;;;;4.20;1.00;;;;;;;8.59;50.68;101090.69;5350786;27;20046;-63
2022/04/09 10:46:15;;;;;;;3.10;0.90;;;;;;;8.43;50.06;101090.81;5356679;27;20033;-63
2022/04/09 10:48:48;;;;;;;8.00;1.90;;;;;;;8.38;50.99;101095.53;5353075;27;20018;-63
2022/04/09 10:51:19;;;;;;;5.00;0.85;;;;;;;8.27;48.80;101090.06;5352629;27;20365;-64
2022/04/09 10:53:51;;;;;;;5.38;0.88;;;;;;;8.36;46.85;101090.34;5347843;27;20041;-64
2022/04/09 10:56:27;;;;;;;4.85;0.77;;;;;;;8.54;49.28;101082.19;5351970;27;20073;-64
2022/04/09 10:59:08;;;;;;;4.53;0.77;;;;;;;8.81;49.03;101106.13;5353948;27;20083;-63
2022/04/09 11:01:49;;;;;;;5.05;1.20;;;;;;;8.76;48.01;101090.47;5350146;27;20102;-64
2022/04/09 11:04:31;;;;;;;5.32;1.05;;;;;;;8.98;49.09;101091.72;5351380;27;20379;-64
2022/04/09 11:07:18;;;;;;;4.95;1.10;;;;;;;9.06;48.54;101097.41;5346515;27;20042;-64
2022/04/09 11:09:56;;;;;;;5.78;1.13;;;;;;;9.03;48.71;101090.47;5330757;27;20080;-63
2022/04/09 11:12:31;;;;;;;3.22;0.60;;;;;;;9.13;47.30;101090.72;5347342;27;20548;-64
2022/04/09 11:15:05;;;;;;;2.80;0.40;;;;;;;9.09;44.54;101096.31;5349894;27;20377;-64
2022/04/09 11:17:45;;;;;;;2.72;0.80;;;;;;;9.17;45.97;101086.03;5350240;27;20595;-64
2022/04/09 11:20:18;;;;;;;2.60;0.60;;;;;;;9.30;44.04;101092.25;5345731;27;20030;-64
2022/04/09 11:22:52;;;;;;;11.18;1.17;;;;;;;9.40;44.57;101103.13;5351544;27;20051;-64
2022/04/09 11:25:25;;;;;;;3.20;0.77;;;;;;;9.47;44.63;101093.75;5352651;27;20471;-65
2022/04/09 11:28:16;;;;;;;3.53;0.68;;;;;;;9.56;45.80;101101.13;5356502;27;20083;-65
2022/04/09 11:31:02;;;;;;;2.92;0.50;;;;;;;9.59;45.12;101105.41;5356473;27;20030;-64
2022/04/09 11:33:34;;;;;;;3.47;0.70;;;;;;;9.72;45.20;101100.06;5355170;27;20374;-65
2022/04/09 11:36:05;;;;;;;2.35;0.70;;;;;;;9.98;44.93;101104.44;5351810;27;20442;-64
2022/04/09 11:38:36;;;;;;;3.22;0.63;;;;;;;10.23;44.48;101118.72;5358113;27;20094;-65
2022/04/09 11:41:18;;;;;;;3.65;0.70;;;;;;;10.18;43.93;101110.19;5356619;27;20022;-64
2022/04/09 11:43:50;;;;;;;2.80;0.60;;;;;;;10.12;44.61;101110.63;5354747;27;20026;-64
2022/04/09 11:46:22;;;;;;;4.53;1.15;;;;;;;10.20;44.17;101122.47;5359443;27;20069;-65
2022/04/09 11:49:00;;;;;;;2.72;0.57;;;;;;;9.92;42.53;101131.53;5354982;27;20106;-64